Time;durP1;ratioP1;P1;durP2;ratioP2;P2;SDS_P1;SDS_P2;PMS_P1;PMS_P2;Temp;Humidity;BMP_temperature;BMP_pressure;BME280_temperature;BME280_humidity;BME280_pressure;Samples;Min_cycle;Max_cycle;Signal;HPM_P1;HPM_P2
2021/12/18 00:00:57;;;;;;;10.18;4.15;;;8.20;99.90;;;;;;5003281;28;20611;-84
2021/12/18 00:03:22;;;;;;;8.10;4.00;;;8.20;99.90;;;;;;4999182;28;20043;-84
2021/12/18 00:05:48;;;;;;;11.27;4.97;;;8.10;99.90;;;;;;4973317;28;20108;-84
2021/12/18 00:08:14;;;;;;;9.38;4.32;;;8.10;99.90;;;;;;4998387;28;20039;-84
2021/12/18 00:10:44;;;;;;;10.43;5.00;;;8.20;99.90;;;;;;4964772;28;20082;-83
2021/12/18 00:13:10;;;;;;;10.77;4.75;;;8.10;99.90;;;;;;5012232;28;20122;-83
2021/12/18 00:15:36;;;;;;;11.48;5.00;;;8.10;99.90;;;;;;4995872;28;20496;-84
2021/12/18 00:18:02;;;;;;;11.70;5.40;;;8.20;99.90;;;;;;4999985;28;20046;-83
2021/12/18 00:20:28;;;;;;;11.45;5.10;;;8.20;99.90;;;;;;5000807;28;20541;-83
2021/12/18 00:22:55;;;;;;;12.43;5.45;;;8.20;99.90;;;;;;5018345;28;20096;-84
2021/12/18 00:25:22;;;;;;;11.98;5.45;;;8.20;99.90;;;;;;4994264;28;20489;-84
2021/12/18 00:27:47;;;;;;;13.13;5.38;;;8.20;99.90;;;;;;5014604;28;20462;-84
2021/12/18 00:30:13;;;;;;;11.77;5.22;;;8.20;99.90;;;;;;5003203;28;20420;-84
2021/12/18 00:32:39;;;;;;;12.90;5.38;;;8.20;99.90;;;;;;4993470;28;20397;-83
2021/12/18 00:35:05;;;;;;;11.85;5.15;;;8.20;99.90;;;;;;4996234;28;20100;-84
2021/12/18 00:37:32;;;;;;;13.05;5.20;;;8.10;99.90;;;;;;5017981;28;20078;-84
2021/12/18 00:40:00;;;;;;;12.23;5.93;;;8.10;99.90;;;;;;4991848;28;20091;-84
2021/12/18 00:45:05;;;;;;;12.75;5.22;;;8.10;99.90;;;;;;5006708;28;20386;-82
2021/12/18 00:47:31;;;;;;;12.60;4.60;;;8.10;99.90;;;;;;5000297;28;20482;-84
2021/12/18 00:49:59;;;;;;;13.05;5.22;;;8.10;99.90;;;;;;4993672;28;21187;-83
2021/12/18 00:52:25;;;;;;;12.25;5.40;;;8.10;99.90;;;;;;5000702;28;20305;-84
2021/12/18 00:54:52;;;;;;;12.93;5.10;;;8.10;99.90;;;;;;5017670;28;20502;-84
2021/12/18 00:57:17;;;;;;;10.50;5.10;;;8.10;99.90;;;;;;4995231;28;20036;-84
2021/12/18 00:59:43;;;;;;;11.75;4.93;;;8.00;99.90;;;;;;4993209;28;20054;-84
2021/12/18 01:02:10;;;;;;;11.52;5.07;;;8.00;99.90;;;;;;5022685;28;21071;-84
2021/12/18 01:04:36;;;;;;;11.23;5.10;;;8.00;99.90;;;;;;5004145;28;20047;-84
2021/12/18 01:07:01;;;;;;;11.15;4.85;;;8.10;99.90;;;;;;4979627;28;20440;-83
2021/12/18 01:09:48;;;;;;;13.82;5.30;;;8.00;99.90;;;;;;5004725;28;20041;-84
2021/12/18 01:12:13;;;;;;;13.05;5.57;;;8.00;99.90;;;;;;5000461;28;20047;-84
2021/12/18 01:24:52;;;;;;;12.32;5.45;;;7.90;99.90;;;;;;4989190;28;20548;-85
2021/12/18 01:27:18;;;;;;;11.30;5.18;;;8.00;99.90;;;;;;4970886;28;22377;-83
2021/12/18 01:29:44;;;;;;;11.25;4.80;;;7.90;99.90;;;;;;4968231;28;20684;-84
2021/12/18 01:32:10;;;;;;;12.30;4.80;;;7.90;99.90;;;;;;4986022;28;20043;-84
2021/12/18 01:34:37;;;;;;;13.43;5.07;;;7.80;99.90;;;;;;4987655;28;20051;-84
2021/12/18 01:37:03;;;;;;;11.45;5.10;;;7.80;99.90;;;;;;4970338;28;20569;-84
2021/12/18 01:39:30;;;;;;;12.82;4.95;;;7.80;99.90;;;;;;4965725;28;20044;-82
2021/12/18 01:45:50;;;;;;;9.90;4.63;;;7.70;99.90;;;;;;4985192;28;20544;-83
2021/12/18 01:53:06;;;;;;;9.52;4.03;;;7.60;99.90;;;;;;4965291;28;20052;-84
2021/12/18 01:55:35;;;;;;;11.55;4.55;;;7.60;99.90;;;;;;4974863;28;20043;-83
2021/12/18 01:58:01;;;;;;;9.68;4.00;;;7.60;99.90;;;;;;4982145;28;20040;-82
2021/12/18 02:00:35;;;;;;;11.18;4.60;;;7.70;99.90;;;;;;4962501;28;20536;-83
2021/12/18 02:03:01;;;;;;;10.60;4.53;;;7.70;99.90;;;;;;4962784;28;20315;-84
2021/12/18 02:05:27;;;;;;;11.98;4.40;;;7.70;99.90;;;;;;4982349;28;20397;-83
2021/12/18 02:07:53;;;;;;;15.98;5.30;;;7.70;99.90;;;;;;4957233;28;20044;-84
2021/12/18 02:10:27;;;;;;;12.20;4.90;;;7.60;99.90;;;;;;4984578;28;20608;-83
2021/12/18 02:20:56;;;;;;;16.25;4.13;;;7.60;99.90;;;;;;4980142;28;20488;-84
2021/12/18 02:23:23;;;;;;;10.60;3.97;;;7.70;99.90;;;;;;4984651;28;20713;-84
2021/12/18 02:25:49;;;;;;;14.82;3.90;;;7.70;99.90;;;;;;4978506;28;20397;-83
2021/12/18 02:28:23;;;;;;;8.82;3.58;;;7.80;99.90;;;;;;4981314;28;20189;-82
2021/12/18 02:30:52;;;;;;;11.50;3.80;;;7.80;99.90;;;;;;4981451;28;20050;-83
2021/12/18 02:33:18;;;;;;;9.18;3.38;;;7.80;99.90;;;;;;4983265;28;20131;-84
2021/12/18 02:35:50;;;;;;;9.90;3.33;;;7.80;99.90;;;;;;4981415;28;20051;-84
2021/12/18 02:38:32;;;;;;;10.23;3.80;;;7.80;99.90;;;;;;4982511;28;20493;-84
2021/12/18 02:43:26;;;;;;;9.35;3.33;;;7.70;99.90;;;;;;4997508;28;20449;-83
2021/12/18 02:45:55;;;;;;;8.48;3.28;;;7.80;99.90;;;;;;4982082;28;20051;-83
2021/12/18 02:48:22;;;;;;;8.25;3.15;;;7.70;99.90;;;;;;4986558;28;20421;-83
2021/12/18 02:50:48;;;;;;;9.27;3.50;;;7.80;99.90;;;;;;4983332;28;20048;-84
2021/12/18 02:53:14;;;;;;;10.10;3.20;;;7.70;99.90;;;;;;4981320;28;20655;-83
2021/12/18 02:55:39;;;;;;;7.63;2.80;;;7.70;99.90;;;;;;4979687;28;20048;-84
2021/12/18 02:58:05;;;;;;;6.80;2.70;;;7.70;99.90;;;;;;4968323;28;20044;-84
2021/12/18 03:00:31;;;;;;;6.63;2.40;;;7.70;99.90;;;;;;4981330;28;20052;-83
2021/12/18 03:02:58;;;;;;;6.88;2.70;;;7.70;99.90;;;;;;4981299;28;20380;-83
2021/12/18 03:05:32;;;;;;;7.47;2.60;;;7.70;99.90;;;;;;4963912;28;20125;-84
2021/12/18 03:08:07;;;;;;;6.68;2.50;;;7.50;99.90;;;;;;4980704;28;20497;-84
2021/12/18 03:19:44;;;;;;;6.80;2.10;;;7.60;99.90;;;;;;4984098;28;20048;-84
2021/12/18 03:24:30;;;;;;;6.90;2.08;;;7.40;99.90;;;;;;5001546;28;20079;-84
2021/12/18 03:26:55;;;;;;;7.47;2.17;;;7.40;99.90;;;;;;4998842;28;20055;-83
2021/12/18 03:29:21;;;;;;;8.52;2.70;;;7.50;99.90;;;;;;4999946;28;20055;-83
2021/12/18 03:31:47;;;;;;;6.00;2.00;;;7.40;99.90;;;;;;4995663;28;20209;-83
2021/12/18 03:34:13;;;;;;;6.50;2.15;;;7.40;99.90;;;;;;4995112;28;20047;-83
2021/12/18 03:36:39;;;;;;;7.57;2.40;;;7.30;99.90;;;;;;4996411;28;20067;-83
2021/12/18 03:39:05;;;;;;;7.07;2.30;;;7.30;99.90;;;;;;5000070;28;20043;-84
2021/12/18 03:41:31;;;;;;;7.40;2.22;;;7.30;99.90;;;;;;4999201;28;20132;-83
2021/12/18 03:43:57;;;;;;;6.05;2.08;;;7.30;99.90;;;;;;4995800;28;20773;-83
2021/12/18 03:46:23;;;;;;;6.32;2.35;;;7.40;99.90;;;;;;5017091;28;20520;-84
2021/12/18 03:48:48;;;;;;;5.80;1.70;;;7.30;99.90;;;;;;4999489;28;20048;-83
2021/12/18 03:51:14;;;;;;;6.75;2.00;;;7.30;99.90;;;;;;4999445;28;20400;-84
2021/12/18 03:53:40;;;;;;;7.53;2.03;;;7.20;99.90;;;;;;5001813;28;20051;-83
2021/12/18 03:56:06;;;;;;;6.82;2.15;;;7.20;99.90;;;;;;4980704;28;20087;-83
2021/12/18 03:58:32;;;;;;;8.23;2.40;;;7.30;99.90;;;;;;4998323;28;20047;-83
2021/12/18 04:00:58;;;;;;;9.88;2.50;;;7.40;99.90;;;;;;5001590;28;20050;-83
2021/12/18 04:03:23;;;;;;;6.13;2.00;;;7.20;99.90;;;;;;4997796;28;20692;-83
2021/12/18 04:05:50;;;;;;;6.63;2.00;;;7.20;99.90;;;;;;5017174;28;20913;-83
2021/12/18 04:08:15;;;;;;;6.05;1.77;;;7.20;99.90;;;;;;4996792;28;20565;-83
2021/12/18 04:10:41;;;;;;;5.80;1.70;;;7.10;99.90;;;;;;4977220;28;20047;-83
2021/12/18 04:13:09;;;;;;;6.45;1.80;;;7.10;99.90;;;;;;4999377;28;20393;-83
2021/12/18 04:15:36;;;;;;;5.75;1.80;;;7.10;99.90;;;;;;4993982;28;20059;-83
2021/12/18 04:18:02;;;;;;;4.85;1.70;;;7.00;99.90;;;;;;4978917;28;20035;-83
2021/12/18 04:20:28;;;;;;;6.50;2.00;;;7.00;99.90;;;;;;4991734;28;20404;-83
2021/12/18 04:22:54;;;;;;;5.10;1.73;;;7.10;99.90;;;;;;4971767;28;20859;-83
2021/12/18 04:25:21;;;;;;;6.13;1.83;;;7.00;99.90;;;;;;4990233;28;20889;-83
2021/12/18 04:27:47;;;;;;;5.72;1.60;;;7.00;99.90;;;;;;4995778;28;20167;-83
2021/12/18 04:30:13;;;;;;;5.22;1.42;;;7.10;99.90;;;;;;4999528;28;20039;-83
2021/12/18 04:32:39;;;;;;;5.72;1.70;;;7.00;99.90;;;;;;4982352;28;20558;-83
2021/12/18 04:35:05;;;;;;;5.50;1.60;;;7.00;99.90;;;;;;4997830;28;20524;-83
2021/12/18 04:37:31;;;;;;;6.03;1.88;;;7.00;99.90;;;;;;4997707;28;20852;-84
2021/12/18 04:39:57;;;;;;;5.90;1.80;;;7.00;99.90;;;;;;4988607;28;20066;-83
2021/12/18 04:42:23;;;;;;;5.65;1.70;;;7.10;99.90;;;;;;5004661;28;20430;-83
2021/12/18 04:44:49;;;;;;;4.93;1.60;;;7.10;99.90;;;;;;4996282;28;20243;-83
2021/12/18 04:47:15;;;;;;;7.50;1.65;;;7.10;99.90;;;;;;4999192;28;20247;-82
2021/12/18 04:49:41;;;;;;;4.93;1.60;;;7.10;99.90;;;;;;4998528;28;20620;-83
2021/12/18 04:52:07;;;;;;;4.50;1.55;;;7.10;99.90;;;;;;4994498;28;20082;-83
2021/12/18 04:54:33;;;;;;;4.78;1.40;;;7.00;99.90;;;;;;4998107;28;20044;-83
2021/12/18 04:56:59;;;;;;;4.65;1.60;;;7.00;99.90;;;;;;4973846;28;20055;-83
2021/12/18 04:59:25;;;;;;;8.10;1.80;;;7.00;99.90;;;;;;4985536;28;20422;-84
2021/12/18 05:01:52;;;;;;;5.20;1.70;;;7.00;99.90;;;;;;5000424;28;20424;-83
2021/12/18 05:04:19;;;;;;;6.35;1.60;;;6.90;99.90;;;;;;5001557;28;20056;-83
2021/12/18 05:06:47;;;;;;;6.05;1.95;;;7.00;99.90;;;;;;4980330;28;20147;-83
2021/12/18 05:09:14;;;;;;;6.72;1.88;;;7.00;99.90;;;;;;4998173;28;20491;-83
2021/12/18 05:11:42;;;;;;;8.10;1.80;;;6.90;99.90;;;;;;4981459;28;20834;-83
2021/12/18 05:14:08;;;;;;;8.15;1.80;;;6.90;99.90;;;;;;4979095;28;20051;-83
2021/12/18 05:16:35;;;;;;;8.15;2.10;;;6.90;99.90;;;;;;4979564;28;20406;-83
2021/12/18 05:19:01;;;;;;;7.00;2.03;;;6.90;99.90;;;;;;4999170;28;20087;-83
2021/12/18 05:21:27;;;;;;;5.72;1.80;;;6.90;99.90;;;;;;4971797;28;20277;-83
2021/12/18 05:23:53;;;;;;;8.50;2.15;;;6.90;99.90;;;;;;4981979;28;20062;-83
2021/12/18 05:26:19;;;;;;;6.53;1.80;;;6.90;99.90;;;;;;5000165;28;20580;-83
2021/12/18 05:28:45;;;;;;;7.00;2.00;;;6.90;99.90;;;;;;4996228;28;20040;-83
2021/12/18 05:31:15;;;;;;;9.15;2.20;;;6.90;99.90;;;;;;4976749;28;20044;-83
2021/12/18 05:33:41;;;;;;;6.25;2.00;;;6.90;99.90;;;;;;5003497;28;20846;-83
2021/12/18 05:36:24;;;;;;;7.18;1.92;;;6.80;99.90;;;;;;4992914;28;20079;-83
2021/12/18 05:38:50;;;;;;;7.95;2.10;;;6.70;99.90;;;;;;5003110;28;20367;-83
2021/12/18 05:41:17;;;;;;;7.43;1.92;;;6.80;99.90;;;;;;4975526;28;20048;-83
2021/12/18 05:43:42;;;;;;;5.15;1.80;;;6.80;99.90;;;;;;4984839;28;20060;-83
2021/12/18 05:46:08;;;;;;;5.55;1.80;;;7.00;99.90;;;;;;4990995;28;20047;-83
2021/12/18 05:48:34;;;;;;;6.90;2.05;;;6.80;99.90;;;;;;4998035;28;20139;-83
2021/12/18 05:51:02;;;;;;;5.30;1.58;;;6.90;99.90;;;;;;5002557;28;20051;-83
2021/12/18 05:53:28;;;;;;;6.13;1.83;;;6.90;99.90;;;;;;4978009;28;20488;-84
2021/12/18 05:55:53;;;;;;;5.53;1.65;;;6.80;99.90;;;;;;5024194;28;20039;-82
2021/12/18 05:58:19;;;;;;;10.80;2.03;;;6.80;99.90;;;;;;5003890;28;20043;-83
2021/12/18 06:00:45;;;;;;;5.65;1.45;;;6.70;99.90;;;;;;5005575;28;20075;-83
2021/12/18 06:03:11;;;;;;;4.85;1.60;;;6.60;99.90;;;;;;5023759;28;20077;-83
2021/12/18 06:05:36;;;;;;;5.00;1.55;;;6.60;99.90;;;;;;4983212;28;20085;-84
2021/12/18 06:08:05;;;;;;;5.65;1.58;;;6.60;99.90;;;;;;4997846;28;20035;-83
2021/12/18 06:10:33;;;;;;;7.18;2.00;;;6.60;99.90;;;;;;5000046;28;20322;-83
2021/12/18 06:13:02;;;;;;;8.35;1.88;;;6.60;99.90;;;;;;5002004;28;20560;-83
2021/12/18 06:15:28;;;;;;;14.88;2.20;;;6.60;99.90;;;;;;5001877;28;20567;-83
2021/12/18 06:17:55;;;;;;;7.78;2.10;;;6.60;99.90;;;;;;4972724;28;20408;-82
2021/12/18 06:20:21;;;;;;;7.05;1.90;;;6.60;99.90;;;;;;5003461;28;20058;-83
2021/12/18 06:22:47;;;;;;;11.73;2.40;;;6.70;99.90;;;;;;5004792;28;20975;-83
2021/12/18 06:25:13;;;;;;;12.27;2.40;;;6.70;99.90;;;;;;5002682;28;20058;-83
2021/12/18 06:27:39;;;;;;;12.30;2.70;;;6.70;99.90;;;;;;5000885;28;20158;-84
2021/12/18 06:30:06;;;;;;;9.63;2.38;;;6.80;99.90;;;;;;4997337;28;20051;-83
2021/12/18 06:32:32;;;;;;;10.68;2.55;;;6.80;99.90;;;;;;5006025;28;20053;-83
2021/12/18 06:34:58;;;;;;;9.50;2.45;;;6.70;99.90;;;;;;5003732;28;20054;-84
2021/12/18 06:37:24;;;;;;;12.13;2.50;;;6.80;99.90;;;;;;5002970;28;20044;-83
2021/12/18 06:39:49;;;;;;;9.85;2.42;;;6.80;99.90;;;;;;5001577;28;20436;-83
2021/12/18 06:42:15;;;;;;;13.20;2.60;;;6.80;99.90;;;;;;4999680;28;20047;-84
2021/12/18 06:44:41;;;;;;;9.15;2.50;;;6.90;99.90;;;;;;5021265;28;20051;-84
2021/12/18 06:47:07;;;;;;;12.45;3.05;;;6.80;99.90;;;;;;5004208;28;20039;-83
2021/12/18 06:49:32;;;;;;;9.52;2.47;;;6.80;99.90;;;;;;4981779;28;20409;-84
2021/12/18 06:51:58;;;;;;;19.15;3.05;;;6.90;99.90;;;;;;5007170;28;20096;-84
2021/12/18 06:54:24;;;;;;;9.70;2.35;;;6.80;99.90;;;;;;5007370;28;20074;-84
2021/12/18 06:56:50;;;;;;;12.73;3.08;;;6.90;99.90;;;;;;5003642;28;20815;-84
2021/12/18 06:59:16;;;;;;;8.75;2.72;;;6.90;99.90;;;;;;4977804;28;20055;-83
2021/12/18 07:01:42;;;;;;;15.25;2.90;;;7.00;99.90;;;;;;4998042;28;20050;-84
2021/12/18 07:04:08;;;;;;;15.80;3.45;;;6.90;99.90;;;;;;5016143;28;20499;-84
2021/12/18 07:06:34;;;;;;;14.07;2.72;;;6.90;99.90;;;;;;5000192;28;20055;-84
2021/12/18 07:08:59;;;;;;;9.85;2.40;;;6.90;99.90;;;;;;5003190;28;20058;-84
2021/12/18 07:11:25;;;;;;;7.45;1.80;;;6.90;99.90;;;;;;4989250;28;20280;-84
2021/12/18 07:13:51;;;;;;;7.13;1.80;;;6.90;99.90;;;;;;4997565;28;20282;-83
2021/12/18 07:16:17;;;;;;;9.05;2.08;;;6.90;99.90;;;;;;5002726;28;20043;-83
2021/12/18 07:18:43;;;;;;;7.05;2.08;;;6.80;99.90;;;;;;4987310;28;20411;-83
2021/12/18 07:21:09;;;;;;;11.05;2.13;;;6.80;99.90;;;;;;4981089;28;20215;-83
2021/12/18 07:23:35;;;;;;;10.27;2.58;;;6.90;99.90;;;;;;5002294;28;20511;-83
2021/12/18 07:26:01;;;;;;;6.88;1.95;;;6.90;99.90;;;;;;4976906;28;20382;-84
2021/12/18 07:28:26;;;;;;;8.63;2.38;;;6.80;99.90;;;;;;4993971;28;20036;-84
2021/12/18 07:30:52;;;;;;;10.18;2.55;;;6.90;99.90;;;;;;5000758;28;20400;-83
2021/12/18 07:33:18;;;;;;;8.77;2.63;;;6.90;99.90;;;;;;4983057;28;20039;-84
2021/12/18 07:35:43;;;;;;;8.40;2.40;;;6.90;99.90;;;;;;4985814;28;20059;-83
2021/12/18 07:38:10;;;;;;;11.23;2.17;;;6.80;99.90;;;;;;4996544;28;20221;-86
2021/12/18 07:40:38;;;;;;;9.50;2.10;;;6.80;99.90;;;;;;4982381;28;20760;-82
2021/12/18 07:43:04;;;;;;;7.60;2.38;;;6.90;99.90;;;;;;4979356;28;20130;-83
2021/12/18 07:45:33;;;;;;;24.90;3.55;;;6.90;99.90;;;;;;5001947;28;20059;-82
2021/12/18 07:48:00;;;;;;;9.77;2.47;;;6.90;99.90;;;;;;5000848;28;20824;-83
2021/12/18 07:50:26;;;;;;;9.10;2.30;;;6.90;99.90;;;;;;4996872;28;20237;-84
2021/12/18 07:52:52;;;;;;;9.52;2.85;;;6.90;99.90;;;;;;4997918;28;20039;-83
2021/12/18 07:55:17;;;;;;;9.15;2.60;;;6.90;99.90;;;;;;4984591;28;20402;-84
2021/12/18 07:57:43;;;;;;;10.40;3.00;;;6.90;99.90;;;;;;4982766;28;20374;-84
2021/12/18 08:00:12;;;;;;;9.35;2.95;;;6.90;99.90;;;;;;5000455;28;20427;-85
2021/12/18 08:02:39;;;;;;;9.77;3.00;;;6.90;99.90;;;;;;4987090;28;20116;-84
2021/12/18 08:05:06;;;;;;;13.23;3.58;;;6.90;99.90;;;;;;4998116;28;20545;-83
2021/12/18 08:07:32;;;;;;;13.82;3.17;;;6.90;99.90;;;;;;4997590;28;20063;-85
2021/12/18 08:09:58;;;;;;;12.35;3.30;;;6.90;99.90;;;;;;5003276;28;20043;-83
2021/12/18 08:12:24;;;;;;;10.40;3.60;;;7.00;99.90;;;;;;5001618;28;20054;-83
2021/12/18 08:14:50;;;;;;;11.07;3.40;;;7.00;99.90;;;;;;4999174;28;20565;-83
2021/12/18 08:17:16;;;;;;;10.32;3.78;;;7.00;99.90;;;;;;5000275;28;20072;-84
2021/12/18 08:19:42;;;;;;;10.90;3.30;;;7.00;99.90;;;;;;5000052;28;23608;-84
2021/12/18 08:22:08;;;;;;;10.90;2.90;;;7.00;99.90;;;;;;5005927;28;20063;-83
2021/12/18 08:24:33;;;;;;;9.68;3.13;;;7.00;99.90;;;;;;5000167;28;20219;-84
2021/12/18 08:26:59;;;;;;;10.73;3.30;;;7.00;99.90;;;;;;4998668;28;20448;-83
2021/12/18 08:29:26;;;;;;;10.02;3.13;;;7.00;99.90;;;;;;4969577;28;20372;-84
2021/12/18 08:31:51;;;;;;;10.23;2.85;;;7.00;99.90;;;;;;5002354;28;20830;-83
2021/12/18 08:34:22;;;;;;;11.43;3.13;;;7.00;99.90;;;;;;5003257;28;20051;-84
2021/12/18 08:36:48;;;;;;;9.00;3.03;;;7.10;99.90;;;;;;5005159;28;20356;-84
2021/12/18 08:39:14;;;;;;;10.55;3.33;;;7.10;99.90;;;;;;5003617;28;20917;-83
2021/12/18 08:41:42;;;;;;;9.27;3.30;;;7.10;99.90;;;;;;4983319;28;20901;-83
2021/12/18 08:44:08;;;;;;;9.90;3.65;;;7.10;99.90;;;;;;5003772;28;20114;-83
2021/12/18 08:46:35;;;;;;;11.05;3.42;;;7.10;99.90;;;;;;4999668;28;20780;-83
2021/12/18 08:49:01;;;;;;;12.45;3.45;;;7.20;99.90;;;;;;4999676;28;20052;-83
2021/12/18 08:51:27;;;;;;;12.02;4.05;;;7.20;99.90;;;;;;4984487;28;20537;-83
2021/12/18 08:53:53;;;;;;;14.40;4.07;;;7.20;99.90;;;;;;4997355;28;20047;-84
2021/12/18 08:56:19;;;;;;;12.50;4.45;;;7.20;99.90;;;;;;5000496;28;20445;-83
2021/12/18 08:58:45;;;;;;;12.57;4.40;;;7.30;99.90;;;;;;4999118;28;20481;-83
2021/12/18 09:01:10;;;;;;;13.25;3.88;;;7.20;99.90;;;;;;4992392;28;20047;-83
2021/12/18 09:03:36;;;;;;;12.57;4.50;;;7.30;99.90;;;;;;4999513;28;20116;-83
2021/12/18 09:06:03;;;;;;;12.43;4.55;;;7.30;99.90;;;;;;4979629;28;20070;-83
2021/12/18 09:08:29;;;;;;;12.07;4.32;;;7.30;99.90;;;;;;5004038;28;20109;-83
2021/12/18 09:10:55;;;;;;;9.40;4.00;;;7.30;99.90;;;;;;4997914;28;20204;-83
2021/12/18 09:13:21;;;;;;;11.38;4.70;;;7.30;99.90;;;;;;4979897;28;20051;-84
2021/12/18 09:15:47;;;;;;;12.40;3.92;;;7.40;99.90;;;;;;5002979;28;20047;-83
2021/12/18 09:18:13;;;;;;;11.65;3.97;;;7.40;99.90;;;;;;5008761;28;20044;-83
2021/12/18 09:20:41;;;;;;;19.70;4.68;;;7.40;99.90;;;;;;5001163;28;20067;-84
2021/12/18 09:23:07;;;;;;;37.80;6.05;;;7.50;99.90;;;;;;5010932;28;20493;-83
2021/12/18 09:25:34;;;;;;;19.00;4.13;;;7.50;99.90;;;;;;5008159;28;20059;-82
2021/12/18 09:28:00;;;;;;;11.85;4.18;;;7.50;99.90;;;;;;5002871;28;20357;-83
2021/12/18 09:30:26;;;;;;;12.55;4.28;;;7.40;99.90;;;;;;5002238;28;20181;-83
2021/12/18 09:32:52;;;;;;;13.68;4.18;;;7.40;99.90;;;;;;5002281;28;20043;-84
2021/12/18 09:35:18;;;;;;;11.43;4.32;;;7.50;99.90;;;;;;5001812;28;20500;-83
2021/12/18 09:37:44;;;;;;;11.15;4.53;;;7.50;99.90;;;;;;5001453;28;20579;-82
2021/12/18 09:40:12;;;;;;;13.05;4.38;;;7.50;99.90;;;;;;5002876;28;20180;-83
2021/12/18 09:42:38;;;;;;;14.30;4.55;;;7.60;99.90;;;;;;4991646;28;20055;-83
2021/12/18 09:45:06;;;;;;;10.73;4.43;;;7.60;99.90;;;;;;4980111;28;20430;-83
2021/12/18 09:47:32;;;;;;;11.25;4.70;;;7.70;99.90;;;;;;5004394;28;20248;-84
2021/12/18 09:49:59;;;;;;;14.32;4.40;;;7.70;99.90;;;;;;4978701;28;20536;-83
2021/12/18 09:52:25;;;;;;;16.85;5.03;;;7.70;99.90;;;;;;5002168;28;20043;-83
2021/12/18 09:54:58;;;;;;;10.98;3.92;;;7.80;99.90;;;;;;5001483;28;20058;-83
2021/12/18 09:57:24;;;;;;;13.68;4.40;;;7.80;99.90;;;;;;4986265;28;20054;-83
2021/12/18 09:59:50;;;;;;;16.00;4.82;;;7.80;99.90;;;;;;5008291;28;20710;-84
2021/12/18 10:02:16;;;;;;;11.38;4.60;;;7.90;99.90;;;;;;5009287;28;20063;-82
2021/12/18 10:04:44;;;;;;;11.95;4.47;;;7.90;99.90;;;;;;5005922;28;20047;-82
2021/12/18 10:07:17;;;;;;;11.82;4.95;;;7.90;99.90;;;;;;4998783;28;20086;-84
2021/12/18 10:09:43;;;;;;;14.20;4.78;;;7.90;99.90;;;;;;4997751;28;20550;-84
2021/12/18 10:12:30;;;;;;;14.15;5.38;;;7.90;99.90;;;;;;4987495;28;20161;-83
2021/12/18 10:15:14;;;;;;;14.63;5.72;;;8.00;99.90;;;;;;5010816;28;20085;-82
2021/12/18 10:17:42;;;;;;;15.82;5.82;;;8.00;99.90;;;;;;4995882;28;20044;-82
2021/12/18 10:20:10;;;;;;;14.40;6.43;;;8.00;99.90;;;;;;4997554;28;20048;-83
2021/12/18 10:22:58;;;;;;;15.50;6.32;;;8.00;99.90;;;;;;4998503;28;20055;-84
2021/12/18 10:25:27;;;;;;;14.20;5.63;;;8.10;99.90;;;;;;4980209;28;20112;-84
2021/12/18 10:28:15;;;;;;;14.10;6.18;;;8.20;99.90;;;;;;4994261;28;20047;-85
2021/12/18 10:30:52;;;;;;;13.18;5.70;;;8.20;99.90;;;;;;4986546;28;20859;-82
2021/12/18 10:33:20;;;;;;;15.68;6.35;;;8.20;99.90;;;;;;4994609;28;20523;-83
2021/12/18 10:35:53;;;;;;;16.60;6.75;;;8.30;99.90;;;;;;4996357;28;20501;-83
2021/12/18 10:38:38;;;;;;;16.20;7.40;;;8.30;99.90;;;;;;5006091;28;20081;-83
2021/12/18 10:41:24;;;;;;;18.38;7.15;;;8.30;99.90;;;;;;5004311;28;20350;-84
2021/12/18 10:43:57;;;;;;;15.27;6.45;;;8.30;99.90;;;;;;5003971;28;20150;-84
2021/12/18 10:46:23;;;;;;;14.55;6.80;;;8.30;99.90;;;;;;4988168;28;20915;-83
2021/12/18 10:49:01;;;;;;;15.10;7.38;;;8.30;99.90;;;;;;4979746;28;20047;-83
2021/12/18 10:51:30;;;;;;;16.20;6.90;;;8.40;99.90;;;;;;4974664;28;20214;-84
2021/12/18 10:54:23;;;;;;;14.75;6.68;;;8.40;99.90;;;;;;5002419;28;20044;-84
2021/12/18 10:56:57;;;;;;;18.92;7.20;;;8.50;99.90;;;;;;4995243;28;20040;-85
2021/12/18 10:59:31;;;;;;;16.75;7.32;;;8.50;99.90;;;;;;4991946;28;20105;-84
2021/12/18 11:02:03;;;;;;;16.63;6.80;;;8.60;99.90;;;;;;4998846;28;20108;-85
2021/12/18 11:04:35;;;;;;;15.50;6.72;;;8.60;99.90;;;;;;5001481;28;20059;-83
2021/12/18 11:07:19;;;;;;;21.50;7.40;;;8.60;99.90;;;;;;5002767;28;20151;-84
2021/12/18 11:09:59;;;;;;;;;;;8.60;99.90;;;;;;4973402;28;20460;-84
2021/12/18 11:15:10;;;;;;;18.77;6.80;;;8.50;99.90;;;;;;4986300;28;20051;-83
2021/12/18 11:17:36;;;;;;;18.50;6.40;;;8.70;99.90;;;;;;4999068;28;20073;-83
2021/12/18 11:20:03;;;;;;;15.75;6.47;;;8.60;99.90;;;;;;5024860;28;20127;-84
2021/12/18 11:22:29;;;;;;;13.85;6.40;;;8.60;99.90;;;;;;5001924;28;20116;-84
2021/12/18 11:25:02;;;;;;;15.65;6.40;;;8.70;99.90;;;;;;4984597;28;20547;-84
2021/12/18 11:27:31;;;;;;;13.25;5.30;;;8.80;99.90;;;;;;5003492;28;20130;-84
2021/12/18 11:30:02;;;;;;;16.42;6.00;;;8.70;99.90;;;;;;4979846;28;20104;-84
2021/12/18 11:32:30;;;;;;;15.40;5.93;;;8.80;99.90;;;;;;4981567;28;20111;-83
2021/12/18 11:35:03;;;;;;;14.85;5.82;;;8.90;99.90;;;;;;5007056;28;20575;-84
2021/12/18 11:37:38;;;;;;;14.32;5.95;;;8.90;99.90;;;;;;4985233;28;20070;-83
2021/12/18 11:40:04;;;;;;;12.75;4.85;;;9.00;99.90;;;;;;5000038;28;20104;-84
2021/12/18 11:42:32;;;;;;;15.75;5.35;;;9.00;99.90;;;;;;5003665;28;20658;-84
2021/12/18 11:45:01;;;;;;;13.20;4.80;;;9.10;99.90;;;;;;4999404;28;20112;-83
2021/12/18 11:47:27;;;;;;;12.18;4.70;;;9.10;99.90;;;;;;4997319;28;20613;-84
2021/12/18 11:49:56;;;;;;;14.55;5.15;;;9.10;99.90;;;;;;5007130;28;20404;-85
2021/12/18 11:52:22;;;;;;;11.93;4.30;;;9.20;99.90;;;;;;5017897;28;20097;-85
2021/12/18 11:54:49;;;;;;;11.40;3.95;;;9.20;99.90;;;;;;4997474;28;20042;-85
2021/12/18 11:57:40;;;;;;;12.18;4.03;;;9.20;99.90;;;;;;4998371;28;20043;-84
2021/12/18 12:00:34;;;;;;;12.48;4.45;;;9.20;99.90;;;;;;4994064;28;20047;-85
2021/12/18 12:03:01;;;;;;;13.70;4.10;;;9.20;99.90;;;;;;5009996;28;20048;-84
2021/12/18 12:05:43;;;;;;;13.77;3.97;;;9.20;99.90;;;;;;4983115;28;20872;-83
2021/12/18 12:08:19;;;;;;;10.43;3.97;;;9.20;99.90;;;;;;4983032;28;20088;-85
2021/12/18 12:11:24;;;;;;;11.80;3.95;;;9.30;99.90;;;;;;5008532;28;20040;-84
2021/12/18 12:13:58;;;;;;;10.18;3.55;;;9.20;99.90;;;;;;4985413;28;20960;-87
2021/12/18 12:16:47;;;;;;;;;;;9.30;99.90;;;;;;5009372;28;20541;-85
2021/12/18 12:19:35;;;;;;;10.32;3.53;;;9.30;99.90;;;;;;4963959;28;19967;-84
2021/12/18 12:22:05;;;;;;;11.45;3.75;;;9.40;99.90;;;;;;4985131;28;20067;-84
2021/12/18 12:24:52;;;;;;;12.65;3.72;;;9.40;99.90;;;;;;4991430;28;20517;-84
2021/12/18 12:27:42;;;;;;;9.95;3.33;;;9.30;99.90;;;;;;4972454;28;20523;-84
2021/12/18 12:30:27;;;;;;;10.48;3.42;;;9.40;99.90;;;;;;5003929;28;20512;-83
2021/12/18 12:33:05;;;;;;;12.68;4.05;;;9.40;99.90;;;;;;5022284;28;20046;-85
2021/12/18 12:35:59;;;;;;;27.77;4.53;;;9.40;99.90;;;;;;5024889;28;20302;-85
2021/12/18 12:38:46;;;;;;;10.73;3.65;;;9.40;99.90;;;;;;5031432;28;20404;-83
2021/12/18 12:41:28;;;;;;;15.55;4.20;;;9.40;99.90;;;;;;4971550;28;20055;-85
2021/12/18 12:44:01;;;;;;;13.30;3.70;;;9.40;99.90;;;;;;5006181;28;20429;-86
2021/12/18 12:46:28;;;;;;;10.75;3.50;;;9.40;99.90;;;;;;4992337;28;20098;-83
2021/12/18 12:49:11;;;;;;;13.30;3.30;;;9.50;99.90;;;;;;5003791;28;20533;-84
2021/12/18 12:52:02;;;;;;;10.53;3.60;;;9.40;99.90;;;;;;4983392;28;20559;-85
2021/12/18 12:54:51;;;;;;;12.43;3.35;;;9.40;99.90;;;;;;4995898;28;21326;-84
2021/12/18 12:57:35;;;;;;;8.50;3.33;;;9.40;99.90;;;;;;4987331;28;20043;-85
2021/12/18 13:00:06;;;;;;;11.50;3.97;;;9.40;99.90;;;;;;4971610;28;20138;-85
2021/12/18 13:02:36;;;;;;;13.93;3.85;;;9.30;99.90;;;;;;5018875;28;20066;-85
2021/12/18 13:05:10;;;;;;;9.10;3.70;;;9.40;99.90;;;;;;4982128;28;20445;-86
2021/12/18 13:07:45;;;;;;;11.05;3.55;;;9.30;99.90;;;;;;5008990;28;20478;-84
2021/12/18 13:10:11;;;;;;;10.98;3.85;;;9.30;99.90;;;;;;4984732;28;20047;-85
2021/12/18 13:12:53;;;;;;;12.27;3.80;;;9.40;99.90;;;;;;4999580;28;20408;-85
2021/12/18 13:15:18;;;;;;;10.45;4.10;;;9.50;99.90;;;;;;4999005;28;20182;-84
2021/12/18 13:17:45;;;;;;;10.68;4.28;;;9.40;99.90;;;;;;5004604;28;20039;-86
2021/12/18 13:20:10;;;;;;;11.95;4.10;;;9.50;99.90;;;;;;5005364;28;20048;-85
2021/12/18 13:22:36;;;;;;;12.40;4.10;;;9.50;99.90;;;;;;4977519;28;20968;-84
2021/12/18 13:25:09;;;;;;;13.20;4.10;;;9.60;99.90;;;;;;4974878;28;20813;-85
2021/12/18 13:27:39;;;;;;;9.27;3.70;;;9.50;99.90;;;;;;4978734;28;20067;-84
2021/12/18 13:30:34;;;;;;;9.82;4.10;;;9.40;99.90;;;;;;4982784;28;20938;-85
2021/12/18 13:33:04;;;;;;;9.38;3.88;;;9.40;99.90;;;;;;4979170;28;20067;-85
2021/12/18 13:35:32;;;;;;;11.00;4.03;;;9.40;99.90;;;;;;4979535;28;20056;-84
2021/12/18 13:38:07;;;;;;;10.82;4.57;;;9.40;99.90;;;;;;4974812;28;20136;-84
2021/12/18 13:40:45;;;;;;;8.98;4.13;;;9.40;99.90;;;;;;4958588;28;20082;-84
2021/12/18 13:43:15;;;;;;;10.27;3.70;;;9.30;99.90;;;;;;4979079;28;20197;-83
2021/12/18 13:45:54;;;;;;;7.63;2.92;;;9.30;99.90;;;;;;4976326;28;20513;-83